createdAt,value
2018-03-19T00:00:10.967Z,16.50
2018-03-19T00:02:38.607Z,16.50
2018-03-19T00:05:06.223Z,16.30
2018-03-19T00:07:33.843Z,15.90
2018-03-19T00:10:01.737Z,16.20
2018-03-19T00:12:29.371Z,16.00
2018-03-19T00:14:56.987Z,16.20
2018-03-19T00:17:24.662Z,16.30
2018-03-19T00:19:52.293Z,16.20
2018-03-19T00:22:20.110Z,16.50
2018-03-19T00:24:47.743Z,16.10
2018-03-19T00:27:15.359Z,16.30
2018-03-19T00:29:43.799Z,16.10
2018-03-19T00:32:11.428Z,16.10
2018-03-19T00:34:39.049Z,16.00
2018-03-19T00:37:06.689Z,16.10
2018-03-19T00:39:35.082Z,16.20
2018-03-19T00:44:38.257Z,16.20
2018-03-19T00:47:05.862Z,16.10
2018-03-19T00:49:33.487Z,16.00
2018-03-19T00:52:01.119Z,16.10
2018-03-19T00:54:28.723Z,16.60
2018-03-19T00:56:56.390Z,16.50
2018-03-19T00:59:24.763Z,16.20
2018-03-19T01:01:52.510Z,16.20
2018-03-19T01:04:20.136Z,16.30
2018-03-19T01:06:47.784Z,16.40
2018-03-19T01:09:15.408Z,16.20
2018-03-19T01:11:43.016Z,16.30
2018-03-19T01:14:10.643Z,16.80
2018-03-19T01:16:38.257Z,16.00
2018-03-19T01:19:05.892Z,16.20
2018-03-19T01:21:33.511Z,16.70
2018-03-19T01:24:01.138Z,16.70
2018-03-19T01:26:28.768Z,17.00
2018-03-19T01:28:56.412Z,16.50
2018-03-19T01:31:24.018Z,16.50
2018-03-19T01:33:51.631Z,16.70
2018-03-19T01:36:19.283Z,16.70
2018-03-19T01:38:47.647Z,16.80
2018-03-19T01:41:15.278Z,16.80
2018-03-19T01:43:42.889Z,16.50
2018-03-19T01:46:10.523Z,16.70
2018-03-19T01:48:38.137Z,17.20
2018-03-19T01:51:05.775Z,16.60
2018-03-19T01:53:33.388Z,16.90
2018-03-19T01:56:01.059Z,17.00
2018-03-19T01:58:28.664Z,16.80
2018-03-19T02:00:57.042Z,16.90
2018-03-19T02:03:24.682Z,16.90
2018-03-19T02:05:52.340Z,16.80
2018-03-19T02:08:19.975Z,17.30
2018-03-19T02:10:47.582Z,16.20
2018-03-19T02:13:15.215Z,16.70
2018-03-19T02:15:42.832Z,16.40
2018-03-19T02:18:10.459Z,17.00
2018-03-19T02:20:38.079Z,17.20
2018-03-19T02:23:05.682Z,17.00
2018-03-19T02:25:33.302Z,16.90
2018-03-19T02:28:01.680Z,16.80
2018-03-19T02:30:29.321Z,16.70
2018-03-19T02:32:56.945Z,16.60
2018-03-19T02:35:25.341Z,16.70
2018-03-19T02:37:52.947Z,16.60
2018-03-19T02:40:20.599Z,17.10
2018-03-19T02:42:48.313Z,16.90
2018-03-19T02:45:15.927Z,16.70
2018-03-19T02:47:44.315Z,17.00
2018-03-19T02:50:12.692Z,17.50
2018-03-19T02:52:40.320Z,17.10
2018-03-19T02:55:07.950Z,17.30
2018-03-19T02:57:35.579Z,16.90
2018-03-19T03:00:03.231Z,17.30
2018-03-19T03:02:30.875Z,17.40
2018-03-19T03:04:58.515Z,17.10
2018-03-19T03:07:26.178Z,17.30
2018-03-19T03:09:53.780Z,17.70
2018-03-19T03:12:21.382Z,18.10
2018-03-19T03:14:49.047Z,18.40
2018-03-19T03:17:17.423Z,18.90
2018-03-19T03:19:45.039Z,18.90
2018-03-19T03:22:12.633Z,19.20
2018-03-19T03:24:40.257Z,19.00
2018-03-19T03:27:07.859Z,19.40
2018-03-19T03:29:35.486Z,19.60
2018-03-19T03:32:03.104Z,20.20
2018-03-19T03:34:30.744Z,20.00
2018-03-19T03:36:58.352Z,20.40
2018-03-19T03:39:25.971Z,21.60
2018-03-19T03:41:53.635Z,21.80
2018-03-19T03:44:21.290Z,22.40
2018-03-19T03:46:48.900Z,22.90
2018-03-19T03:49:16.526Z,23.30
2018-03-19T03:51:44.144Z,23.30
2018-03-19T03:54:11.807Z,21.80
2018-03-19T03:56:39.440Z,21.00
2018-03-19T03:59:07.828Z,20.30
2018-03-19T04:01:36.232Z,20.40
2018-03-19T04:04:03.940Z,20.40
2018-03-19T04:06:31.577Z,20.90
2018-03-19T04:08:59.196Z,20.20
2018-03-19T04:11:26.833Z,20.70
2018-03-19T04:13:54.443Z,20.40
2018-03-19T04:16:22.051Z,20.40
2018-03-19T04:18:49.686Z,20.50
2018-03-19T04:21:17.311Z,20.60
2018-03-19T04:23:45.728Z,20.70
2018-03-19T04:26:13.334Z,20.70
2018-03-19T04:28:40.978Z,21.00
2018-03-19T04:31:08.879Z,21.10
2018-03-19T04:33:36.521Z,20.30
2018-03-19T04:36:04.231Z,20.50
2018-03-19T04:38:31.863Z,20.20
2018-03-19T04:41:00.255Z,20.80
2018-03-19T04:43:27.883Z,20.80
2018-03-19T04:45:55.510Z,21.60
2018-03-19T04:48:23.115Z,21.30
2018-03-19T04:50:50.756Z,21.90
2018-03-19T04:53:18.370Z,21.20
2018-03-19T04:55:46.008Z,21.50
2018-03-19T04:58:13.620Z,21.70
2018-03-19T05:00:41.464Z,21.30
2018-03-19T05:03:09.106Z,22.30
2018-03-19T05:05:37.488Z,23.80
2018-03-19T05:08:05.112Z,23.70
2018-03-19T05:10:33.008Z,23.40
2018-03-19T05:13:00.635Z,23.50
2018-03-19T05:15:29.015Z,23.40
2018-03-19T05:17:56.651Z,23.40
2018-03-19T05:20:24.247Z,23.30
2018-03-19T05:22:51.902Z,23.60
2018-03-19T05:25:19.495Z,23.60
2018-03-19T05:27:47.206Z,22.80
2018-03-19T05:30:15.131Z,22.20
2018-03-19T05:32:42.750Z,22.80
2018-03-19T05:35:11.193Z,21.70
2018-03-19T05:37:38.802Z,21.70
2018-03-19T05:40:06.459Z,22.00
2018-03-19T05:42:34.058Z,21.90
2018-03-19T05:45:02.472Z,22.50
2018-03-19T05:47:30.067Z,22.50
2018-03-19T05:49:57.699Z,23.10
2018-03-19T05:52:26.082Z,21.60
2018-03-19T05:54:54.449Z,21.70
2018-03-19T05:57:22.082Z,20.90
2018-03-19T05:59:49.692Z,21.00
2018-03-19T06:02:17.335Z,20.80
2018-03-19T06:04:44.946Z,20.50
2018-03-19T06:07:12.584Z,20.70
2018-03-19T06:09:40.181Z,20.30
2018-03-19T06:12:08.064Z,21.00
2018-03-19T06:14:35.678Z,20.20
2018-03-19T06:17:04.051Z,19.50
2018-03-19T06:19:31.695Z,19.50
2018-03-19T06:21:59.322Z,19.60
2018-03-19T06:24:26.982Z,19.60
2018-03-19T06:26:55.443Z,18.90
2018-03-19T06:29:23.066Z,18.80
2018-03-19T06:31:51.457Z,17.90
2018-03-19T06:34:19.088Z,17.90
2018-03-19T06:36:46.765Z,17.00
2018-03-19T06:39:15.376Z,16.90
2018-03-19T06:41:42.987Z,17.10
2018-03-19T06:44:10.606Z,16.70
2018-03-19T06:46:38.249Z,15.20
2018-03-19T06:49:05.870Z,13.10
2018-03-19T06:51:33.510Z,12.00
2018-03-19T06:54:01.193Z,11.70
2018-03-19T06:56:28.801Z,11.10
2018-03-19T06:58:56.458Z,9.30
2018-03-19T07:01:24.156Z,8.60
2018-03-19T07:03:51.800Z,8.50
2018-03-19T07:06:19.501Z,8.10
2018-03-19T07:08:47.062Z,8.00
2018-03-19T07:11:14.712Z,7.60
2018-03-19T07:13:42.334Z,7.40
2018-03-19T07:16:09.951Z,6.60
2018-03-19T07:18:37.603Z,7.20
2018-03-19T07:21:05.226Z,7.90
2018-03-19T07:23:32.862Z,8.80
2018-03-19T07:26:00.485Z,6.80
2018-03-19T07:28:28.120Z,6.70
2018-03-19T07:30:55.756Z,6.30
2018-03-19T07:33:24.148Z,5.80
2018-03-19T07:35:51.777Z,5.80
2018-03-19T07:38:19.407Z,5.70
2018-03-19T07:40:47.015Z,5.90
2018-03-19T07:43:14.610Z,6.90
2018-03-19T07:45:42.248Z,7.00
2018-03-19T07:48:09.857Z,8.00
2018-03-19T07:50:37.505Z,8.30
2018-03-19T07:53:05.119Z,9.30
2018-03-19T07:55:32.742Z,9.40
2018-03-19T07:58:00.347Z,9.10
2018-03-19T08:00:27.994Z,10.10
2018-03-19T08:02:55.614Z,10.90
2018-03-19T08:05:23.262Z,11.90
2018-03-19T08:07:50.869Z,12.60
2018-03-19T08:10:18.475Z,13.00
2018-03-19T08:12:46.099Z,13.40
2018-03-19T08:15:13.724Z,13.10
2018-03-19T08:17:41.351Z,13.20
2018-03-19T08:20:08.982Z,13.50
2018-03-19T08:22:36.612Z,14.00
2018-03-19T08:25:04.236Z,14.50
2018-03-19T08:27:31.922Z,14.10
2018-03-19T08:29:59.538Z,13.50
2018-03-19T08:32:27.945Z,12.20
2018-03-19T08:34:56.329Z,11.70
2018-03-19T08:37:24.707Z,11.10
2018-03-19T08:39:53.095Z,9.70
2018-03-19T08:42:21.474Z,8.30
2018-03-19T08:44:49.096Z,8.30
2018-03-19T08:47:16.694Z,8.00
2018-03-19T08:49:44.322Z,8.90
2018-03-19T08:52:12.772Z,7.30
2018-03-19T08:54:40.403Z,7.30
2018-03-19T08:57:08.764Z,6.80
2018-03-19T08:59:37.147Z,7.00
2018-03-19T09:02:04.773Z,7.00
2018-03-19T09:04:32.382Z,8.10
2018-03-19T09:07:00.002Z,7.40
2018-03-19T09:09:28.400Z,6.70
2018-03-19T09:11:56.780Z,5.70
2018-03-19T09:14:25.140Z,6.00
2018-03-19T09:16:52.797Z,5.90
2018-03-19T09:19:20.374Z,8.10
2018-03-19T09:21:47.980Z,6.80
2018-03-19T09:24:15.612Z,6.50
2018-03-19T09:26:43.215Z,6.80
2018-03-19T09:29:10.834Z,6.30
2018-03-19T09:31:38.443Z,7.20
2018-03-19T09:34:06.055Z,6.50
2018-03-19T09:36:34.437Z,6.60
2018-03-19T09:39:02.853Z,8.20
2018-03-19T09:41:30.454Z,7.80
2018-03-19T09:43:58.070Z,8.50
2018-03-19T09:46:25.648Z,7.10
2018-03-19T09:48:53.244Z,7.20
2018-03-19T09:51:21.690Z,7.20
2018-03-19T09:53:49.285Z,7.30
2018-03-19T09:56:16.924Z,7.60
2018-03-19T09:58:44.526Z,7.30
2018-03-19T10:01:12.148Z,9.50
2018-03-19T10:03:39.750Z,7.70
2018-03-19T10:06:07.385Z,8.80
2018-03-19T10:08:34.970Z,9.10
2018-03-19T10:11:02.576Z,9.20
2018-03-19T10:13:30.204Z,8.30
2018-03-19T10:15:57.808Z,9.50
2018-03-19T10:18:25.434Z,9.10
2018-03-19T10:20:53.792Z,7.40
2018-03-19T10:23:21.415Z,6.90
2018-03-19T10:25:49.769Z,8.30
2018-03-19T10:28:17.403Z,8.30
2018-03-19T10:30:45.021Z,7.10
2018-03-19T10:33:12.619Z,6.30
2018-03-19T10:35:40.253Z,6.60
2018-03-19T10:38:07.853Z,5.80
2018-03-19T10:40:35.467Z,5.90
2018-03-19T10:43:03.080Z,6.80
2018-03-19T10:45:30.704Z,5.60
2018-03-19T10:47:58.289Z,6.60
2018-03-19T10:50:25.899Z,6.30
2018-03-19T10:52:53.491Z,3.10
2018-03-19T10:55:21.144Z,3.60
2018-03-19T10:57:48.745Z,4.30
2018-03-19T11:00:16.344Z,5.80
2018-03-19T11:06:00.636Z,4.10
2018-03-19T11:08:33.699Z,4.10
2018-03-19T11:11:01.317Z,4.10
2018-03-19T11:13:28.904Z,3.70
2018-03-19T11:15:56.503Z,4.80
2018-03-19T11:18:24.128Z,5.00
2018-03-19T11:20:52.495Z,5.20
2018-03-19T11:23:20.116Z,5.20
2018-03-19T11:25:47.713Z,5.60
2018-03-19T11:28:15.311Z,5.40
2018-03-19T11:30:42.907Z,5.20
2018-03-19T11:33:10.543Z,5.40
2018-03-19T11:35:38.138Z,6.00
2018-03-19T11:38:05.742Z,6.50
2018-03-19T11:40:34.134Z,5.50
2018-03-19T11:43:01.731Z,5.40
2018-03-19T11:45:29.363Z,3.80
2018-03-19T11:47:57.728Z,4.80
2018-03-19T11:50:25.345Z,4.80
2018-03-19T11:52:52.983Z,4.50
2018-03-19T11:55:20.582Z,3.50
2018-03-19T11:57:48.959Z,5.20
2018-03-19T12:00:16.567Z,5.20
2018-03-19T12:02:44.183Z,4.90
2018-03-19T12:05:11.774Z,4.70
2018-03-19T12:07:39.403Z,4.00
2018-03-19T12:10:07.018Z,4.30
2018-03-19T12:12:34.626Z,3.60
2018-03-19T12:15:02.214Z,5.00
2018-03-19T12:17:29.851Z,5.50
2018-03-19T12:19:58.219Z,4.00
2018-03-19T12:22:25.881Z,3.80
2018-03-19T12:24:53.500Z,5.50
2018-03-19T12:27:21.864Z,3.90
2018-03-19T12:29:49.474Z,3.90
2018-03-19T12:32:17.077Z,2.10
2018-03-19T12:34:44.707Z,1.30
2018-03-19T12:37:13.127Z,1.10
2018-03-19T12:39:41.548Z,1.40
2018-03-19T12:42:09.148Z,1.40
2018-03-19T12:44:36.796Z,1.70
2018-03-19T12:47:04.392Z,1.40
2018-03-19T12:49:31.979Z,2.50
2018-03-19T12:51:59.606Z,1.90
2018-03-19T12:54:27.206Z,2.60
2018-03-19T12:56:54.845Z,3.00
2018-03-19T12:59:22.476Z,2.00
2018-03-19T13:01:50.870Z,1.00
2018-03-19T13:04:19.235Z,1.00
2018-03-19T13:06:46.863Z,1.00
2018-03-19T13:09:14.455Z,1.40
2018-03-19T13:11:42.044Z,1.00
2018-03-19T13:14:10.432Z,1.00
2018-03-19T13:16:38.045Z,1.00
2018-03-19T13:19:05.673Z,1.00
2018-03-19T13:21:33.268Z,1.00
2018-03-19T13:24:00.887Z,1.00
2018-03-19T13:26:28.491Z,1.00
2018-03-19T13:28:56.116Z,1.00
2018-03-19T13:31:24.478Z,1.00
2018-03-19T13:33:52.079Z,1.00
2018-03-19T13:36:20.472Z,1.00
2018-03-19T13:38:48.844Z,1.00
2018-03-19T13:41:16.475Z,1.00
2018-03-19T13:43:44.170Z,1.00
2018-03-19T13:46:11.780Z,1.00
2018-03-19T13:48:40.150Z,1.00
2018-03-19T13:51:07.780Z,1.00
2018-03-19T13:53:35.386Z,1.00
2018-03-19T13:56:03.020Z,1.00
2018-03-19T13:58:30.605Z,1.00
2018-03-19T14:00:58.190Z,1.00
2018-03-19T14:03:25.828Z,1.00
2018-03-19T14:05:54.201Z,1.00
2018-03-19T14:08:21.803Z,1.00
2018-03-19T14:10:49.391Z,1.00
2018-03-19T14:13:17.006Z,1.00
2018-03-19T14:15:44.603Z,1.00
2018-03-19T14:18:12.978Z,1.00
2018-03-19T14:20:40.580Z,1.00
2018-03-19T14:23:08.971Z,1.00
2018-03-19T14:25:37.336Z,1.00
2018-03-19T14:28:05.012Z,1.00
2018-03-19T14:30:32.583Z,1.00
2018-03-19T14:33:00.216Z,1.00
2018-03-19T14:35:27.826Z,1.00
2018-03-19T14:37:55.420Z,1.00
2018-03-19T14:40:23.798Z,1.00
2018-03-19T14:42:51.397Z,1.00
2018-03-19T14:45:19.019Z,1.00
2018-03-19T14:47:46.615Z,1.00
2018-03-19T14:50:14.235Z,1.00
2018-03-19T14:52:41.845Z,1.00
2018-03-19T14:55:09.531Z,1.60
2018-03-19T14:57:37.125Z,1.30
2018-03-19T15:00:05.526Z,1.60
2018-03-19T15:02:33.894Z,1.00
2018-03-19T15:05:01.475Z,1.00
2018-03-19T15:07:29.861Z,1.00
2018-03-19T15:09:57.453Z,1.30
2018-03-19T15:12:25.848Z,2.70
2018-03-19T15:14:54.206Z,1.50
2018-03-19T15:17:21.818Z,1.50
2018-03-19T15:19:50.175Z,2.40
2018-03-19T15:22:17.806Z,2.40
2018-03-19T15:24:45.401Z,1.70
2018-03-19T15:27:13.002Z,1.30
2018-03-19T15:29:40.620Z,1.70
2018-03-19T15:32:08.199Z,2.10
2018-03-19T15:34:35.811Z,1.00
2018-03-19T15:37:03.407Z,1.90
2018-03-19T15:39:31.803Z,2.70
2018-03-19T15:42:00.175Z,2.00
2018-03-19T15:44:27.801Z,2.00
2018-03-19T15:46:55.394Z,1.60
2018-03-19T15:49:23.088Z,2.30
2018-03-19T15:51:50.667Z,2.20
2018-03-19T15:54:18.271Z,1.50
2018-03-19T15:56:46.647Z,2.80
2018-03-19T15:59:14.234Z,2.70
2018-03-19T16:01:42.620Z,2.70
2018-03-19T16:04:10.986Z,2.70
2018-03-19T16:06:38.601Z,2.70
2018-03-19T16:09:06.213Z,3.60
2018-03-19T16:11:33.830Z,3.50
2018-03-19T16:14:02.447Z,3.40
2018-03-19T16:16:30.050Z,3.30
2018-03-19T16:18:57.668Z,3.50
2018-03-19T16:21:25.261Z,3.50
2018-03-19T16:23:52.897Z,4.10
2018-03-19T16:26:20.501Z,4.90
2018-03-19T16:28:48.884Z,3.10
2018-03-19T16:31:17.299Z,3.40
2018-03-19T16:33:44.938Z,3.40
2018-03-19T16:36:12.538Z,3.10
2018-03-19T16:38:40.153Z,3.60
2018-03-19T16:41:07.773Z,4.00
2018-03-19T16:43:36.134Z,4.10
2018-03-19T16:46:03.765Z,4.10
2018-03-19T16:48:31.359Z,4.70
2018-03-19T16:50:58.988Z,4.70
2018-03-19T16:53:27.350Z,4.60
2018-03-19T16:55:54.971Z,4.60
2018-03-19T16:58:22.562Z,4.70
2018-03-19T17:00:50.180Z,5.70
2018-03-19T17:03:17.814Z,5.40
2018-03-19T17:05:45.406Z,5.90
2018-03-19T17:08:13.010Z,5.20
2018-03-19T17:10:41.391Z,5.80
2018-03-19T17:13:09.056Z,5.80
2018-03-19T17:15:36.668Z,6.90
2018-03-19T17:18:05.067Z,9.80
2018-03-19T17:20:32.683Z,9.90
2018-03-19T17:23:00.285Z,7.80
2018-03-19T17:25:27.904Z,7.80
2018-03-19T17:27:55.509Z,8.80
2018-03-19T17:30:23.225Z,9.40
2018-03-19T17:32:51.616Z,9.70
2018-03-19T17:35:20.012Z,9.30
2018-03-19T17:37:48.388Z,9.20
2018-03-19T17:40:16.778Z,11.60
2018-03-19T17:42:44.376Z,11.00
2018-03-19T17:45:11.987Z,10.80
2018-03-19T17:47:39.611Z,11.80
2018-03-19T17:50:07.984Z,12.90
2018-03-19T17:52:35.612Z,12.90
2018-03-19T17:55:03.302Z,13.70
2018-03-19T17:57:31.090Z,13.80
2018-03-19T17:59:58.720Z,15.50
2018-03-19T18:02:26.462Z,15.00
2018-03-19T18:04:54.887Z,14.30
2018-03-19T18:07:22.487Z,14.30
2018-03-19T18:09:50.097Z,13.40
2018-03-19T18:12:17.736Z,13.10
2018-03-19T18:14:45.342Z,13.30
2018-03-19T18:17:12.981Z,13.70
2018-03-19T18:19:40.703Z,13.50
2018-03-19T18:22:08.364Z,18.00
2018-03-19T18:24:36.023Z,17.50
2018-03-19T18:27:03.662Z,17.90
2018-03-19T18:29:31.259Z,17.90
2018-03-19T18:31:58.903Z,17.10
2018-03-19T18:34:26.517Z,17.60
2018-03-19T18:36:54.145Z,15.60
2018-03-19T18:39:21.771Z,15.80
2018-03-19T18:41:49.374Z,19.50
2018-03-19T18:44:17.012Z,18.70
2018-03-19T18:46:44.770Z,17.50
2018-03-19T18:49:12.557Z,17.50
2018-03-19T18:51:41.241Z,17.90
2018-03-19T18:54:09.727Z,18.10
2018-03-19T18:56:37.355Z,18.10
2018-03-19T18:59:04.987Z,19.10
2018-03-19T19:01:32.594Z,18.80
2018-03-19T19:04:00.224Z,17.60
2018-03-19T19:06:27.883Z,19.90
2018-03-19T19:08:55.497Z,20.70
2018-03-19T19:11:23.124Z,22.40
2018-03-19T19:13:51.505Z,20.70
2018-03-19T19:16:20.029Z,20.70
2018-03-19T19:18:47.649Z,22.00
2018-03-19T19:21:15.358Z,22.30
2018-03-19T19:23:42.989Z,19.90
2018-03-19T19:26:10.617Z,22.30
2018-03-19T19:28:38.252Z,21.50
2018-03-19T19:31:05.895Z,22.40
2018-03-19T19:33:33.537Z,22.40
2018-03-19T19:36:01.261Z,21.60
2018-03-19T19:38:28.925Z,21.00
2018-03-19T19:40:56.627Z,23.50
2018-03-19T19:43:24.263Z,24.40
2018-03-19T19:45:51.863Z,25.00
2018-03-19T19:48:19.505Z,22.80
2018-03-19T19:50:47.239Z,23.50
2018-03-19T19:53:15.804Z,24.00
2018-03-19T19:55:43.439Z,26.90
2018-03-19T19:58:11.044Z,25.50
2018-03-19T20:00:38.675Z,26.50
2018-03-19T20:03:07.047Z,24.30
2018-03-19T20:05:35.438Z,24.30
2018-03-19T20:08:03.126Z,24.30
2018-03-19T20:10:31.679Z,23.50
2018-03-19T20:12:59.956Z,23.50
2018-03-19T20:15:30.509Z,22.10
2018-03-19T20:17:58.262Z,22.10
2018-03-19T20:20:25.872Z,24.20
2018-03-19T20:22:53.514Z,25.30
2018-03-19T20:25:21.170Z,24.60
2018-03-19T20:27:48.786Z,23.50
2018-03-19T20:30:16.387Z,24.00
2018-03-19T20:32:44.053Z,25.80
2018-03-19T20:35:12.370Z,25.10
2018-03-19T20:37:40.071Z,26.60
2018-03-19T20:40:07.700Z,27.10
2018-03-19T20:42:35.343Z,27.30
2018-03-19T20:45:02.965Z,26.50
2018-03-19T20:47:31.353Z,26.50
2018-03-19T20:49:59.750Z,26.60
2018-03-19T20:52:28.127Z,24.90
2018-03-19T20:54:55.740Z,24.90
2018-03-19T20:57:23.623Z,23.70
2018-03-19T20:59:51.996Z,25.90
2018-03-19T21:02:19.937Z,25.80
2018-03-19T21:04:47.609Z,26.50
2018-03-19T21:07:15.239Z,26.50
2018-03-19T21:09:42.927Z,26.70
2018-03-19T21:12:10.531Z,26.80
2018-03-19T21:14:38.262Z,27.40
2018-03-19T21:17:06.023Z,28.20
2018-03-19T21:19:33.774Z,27.10
2018-03-19T21:22:01.448Z,27.40
2018-03-19T21:24:29.056Z,28.30
2018-03-19T21:26:56.675Z,28.50
2018-03-19T21:29:24.318Z,29.30
2018-03-19T21:31:51.944Z,27.30
2018-03-19T21:34:19.596Z,28.10
2018-03-19T21:36:47.218Z,27.20
2018-03-19T21:39:15.641Z,27.10
2018-03-19T21:41:43.264Z,27.00
2018-03-19T21:44:10.915Z,28.00
2018-03-19T21:46:38.517Z,29.40
2018-03-19T21:49:06.898Z,29.30
2018-03-19T21:51:34.540Z,29.30
2018-03-19T21:54:02.155Z,29.30
2018-03-19T21:56:30.553Z,29.50
2018-03-19T21:58:58.157Z,29.50
2018-03-19T22:01:25.784Z,31.10
2018-03-19T22:03:53.375Z,29.20
2018-03-19T22:06:21.783Z,29.70
2018-03-19T22:08:49.379Z,29.70
2018-03-19T22:11:17.015Z,29.20
2018-03-19T22:13:45.373Z,29.50
2018-03-19T22:16:13.006Z,28.80
2018-03-19T22:18:40.615Z,30.10
2018-03-19T22:21:08.243Z,31.20
2018-03-19T22:23:35.853Z,30.70
2018-03-19T22:26:03.488Z,31.40
2018-03-19T22:28:31.118Z,31.90
2018-03-19T22:30:58.724Z,33.10
2018-03-19T22:33:27.110Z,33.00
2018-03-19T22:35:55.482Z,33.60
2018-03-19T22:38:23.132Z,33.60
2018-03-19T22:40:50.754Z,33.00
2018-03-19T22:43:19.147Z,33.30
2018-03-19T22:45:47.545Z,33.30
2018-03-19T22:48:15.961Z,32.90
2018-03-19T22:50:43.568Z,32.80
2018-03-19T22:53:11.504Z,32.80
2018-03-19T22:55:39.136Z,34.10
2018-03-19T22:58:06.748Z,34.30
2018-03-19T23:00:34.442Z,35.00
2018-03-19T23:03:02.813Z,35.30
2018-03-19T23:05:30.435Z,35.30
2018-03-19T23:07:58.063Z,34.40
2018-03-19T23:10:25.714Z,34.10
2018-03-19T23:12:53.394Z,33.60
2018-03-19T23:15:21.835Z,33.90
2018-03-19T23:17:49.474Z,33.60
2018-03-19T23:20:24.858Z,33.90
2018-03-19T23:22:52.447Z,34.50
2018-03-19T23:25:20.032Z,33.80
2018-03-19T23:27:47.633Z,33.90
2018-03-19T23:30:15.987Z,34.40
2018-03-19T23:32:43.600Z,34.30
2018-03-19T23:35:11.989Z,35.30
2018-03-19T23:37:40.336Z,34.70
2018-03-19T23:40:07.943Z,34.70
2018-03-19T23:42:35.542Z,35.20
2018-03-19T23:45:03.158Z,34.60
2018-03-19T23:47:30.746Z,33.90
2018-03-19T23:49:58.403Z,32.80
2018-03-19T23:52:25.984Z,32.50
2018-03-19T23:54:53.592Z,32.70
2018-03-19T23:57:21.181Z,33.70
2018-03-19T23:59:49.531Z,32.60
